Time;durP1;ratioP1;P1;durP2;ratioP2;P2;SDS_P1;SDS_P2;PMS_P1;PMS_P2;Temp;Humidity;BMP_temperature;BMP_pressure;BME280_temperature;BME280_humidity;BME280_pressure;Samples;Min_cycle;Max_cycle;Signal;HPM_P1;HPM_P2
2021/12/15 00:00:35;;;;;;;91.57;43.95;;;;;;;7.67;100.00;102849.66;5034634;28;20026;-90
2021/12/15 00:03:00;;;;;;;93.43;43.47;;;;;;;7.52;100.00;102831.03;5031758;28;20039;-89
2021/12/15 00:05:26;;;;;;;92.55;44.22;;;;;;;7.60;100.00;102849.59;5035344;28;20024;-90
2021/12/15 00:07:56;;;;;;;92.85;44.13;;;;;;;7.56;100.00;102846.50;5050345;28;20036;-90
2021/12/15 00:10:23;;;;;;;99.75;47.08;;;;;;;7.47;100.00;102834.25;5051288;28;20547;-89
2021/12/15 00:12:48;;;;;;;97.45;45.03;;;;;;;7.53;100.00;102840.69;5050871;28;20029;-88
2021/12/15 00:15:14;;;;;;;101.25;46.28;;;;;;;7.50;100.00;102841.91;5050919;28;20448;-87
2021/12/15 00:17:40;;;;;;;99.53;45.78;;;;;;;7.47;100.00;102836.13;5050830;28;20686;-88
2021/12/15 00:20:10;;;;;;;105.65;46.63;;;;;;;7.44;100.00;102823.97;5050590;28;20025;-88
2021/12/15 00:22:37;;;;;;;109.05;47.67;;;;;;;7.48;100.00;102838.59;5051284;28;20057;-88
2021/12/15 00:25:05;;;;;;;107.43;49.58;;;;;;;7.45;100.00;102836.28;5050791;28;20061;-88
2021/12/15 00:27:30;;;;;;;109.43;47.53;;;;;;;7.48;100.00;102835.91;5045251;28;20040;-88
2021/12/15 00:29:56;;;;;;;110.07;47.70;;;;;;;7.47;100.00;102828.94;5046476;28;20021;-88
2021/12/15 00:32:21;;;;;;;105.68;45.22;;;;;;;7.47;100.00;102831.59;5049761;28;20040;-87
2021/12/15 00:34:48;;;;;;;110.50;48.47;;;;;;;7.49;100.00;102837.56;5046761;28;20112;-88
2021/12/15 00:37:13;;;;;;;111.63;47.30;;;;;;;7.43;100.00;102825.81;5048208;28;20036;-87
2021/12/15 00:39:39;;;;;;;111.85;47.65;;;;;;;7.50;100.00;102833.88;5049312;28;20033;-88
2021/12/15 00:42:05;;;;;;;115.85;48.95;;;;;;;7.50;100.00;102836.56;5050413;28;20033;-88
2021/12/15 00:44:31;;;;;;;106.93;46.88;;;;;;;7.39;100.00;102819.19;5050936;28;20025;-88
2021/12/15 00:46:56;;;;;;;114.28;49.35;;;;;;;7.52;100.00;102828.34;5050252;28;20486;-88
2021/12/15 00:49:23;;;;;;;109.25;46.83;;;;;;;7.50;100.00;102836.56;5050256;28;20024;-88
2021/12/15 00:51:49;;;;;;;101.68;45.80;;;;;;;7.46;100.00;102818.47;5051619;28;20036;-88
2021/12/15 00:54:15;;;;;;;106.25;47.13;;;;;;;7.51;100.00;102832.03;5051175;28;20025;-88
2021/12/15 00:56:41;;;;;;;114.28;48.10;;;;;;;7.52;100.00;102833.69;5050431;28;20027;-89
2021/12/15 00:59:09;;;;;;;111.85;46.10;;;;;;;7.50;100.00;102822.38;5046663;28;20079;-89
2021/12/15 01:01:36;;;;;;;106.45;45.95;;;;;;;7.46;100.00;102819.28;5049671;28;20464;-88
2021/12/15 01:04:04;;;;;;;106.25;48.08;;;;;;;7.49;100.00;102829.56;5050272;28;20031;-88
2021/12/15 01:06:29;;;;;;;109.55;47.47;;;;;;;7.47;100.00;102820.13;5050667;28;20032;-88
2021/12/15 01:09:02;;;;;;;102.65;45.05;;;;;;;7.45;100.00;102819.47;5049581;28;20024;-88
2021/12/15 01:12:06;;;;;;;105.07;46.05;;;;;;;7.46;100.00;102823.78;5050390;28;20036;-88
2021/12/15 01:20:25;;;;;;;104.22;45.78;;;;;;;7.48;100.00;102832.44;5033665;28;20033;-87
2021/12/15 01:22:53;;;;;;;102.53;46.83;;;;;;;7.44;100.00;102839.97;5030653;28;20025;-88
2021/12/15 01:25:35;;;;;;;102.57;43.97;;;;;;;7.47;100.00;102839.59;5033691;28;20029;-88
2021/12/15 01:28:01;;;;;;;104.13;46.63;;;;;;;7.51;100.00;102834.72;5029924;28;20083;-87
2021/12/15 01:30:29;;;;;;;102.60;45.17;;;;;;;7.53;100.00;102843.34;5046756;28;20369;-88
2021/12/15 01:32:57;;;;;;;102.20;45.78;;;;;;;7.45;100.00;102832.81;5050167;28;20040;-88
2021/12/15 01:35:22;;;;;;;103.60;45.40;;;;;;;7.51;100.00;102842.72;5050093;28;20036;-88
2021/12/15 01:37:49;;;;;;;110.10;45.50;;;;;;;7.40;100.00;102825.34;5049824;28;20025;-88
2021/12/15 01:40:25;;;;;;;104.45;44.65;;;;;;;7.51;100.00;102834.72;5049852;28;20025;-87
2021/12/15 01:42:50;;;;;;;105.93;45.35;;;;;;;7.53;100.00;102835.34;5050126;28;20036;-88
2021/12/15 01:48:04;;;;;;;106.20;46.05;;;;;;;7.42;100.00;102829.50;5053777;28;20143;-87
2021/12/15 01:50:29;;;;;;;110.78;45.20;;;;;;;7.45;100.00;102830.13;5053849;28;20410;-87
2021/12/15 01:52:55;;;;;;;104.72;46.67;;;;;;;7.41;100.00;102822.50;5050959;28;20045;-87
2021/12/15 01:55:21;;;;;;;105.28;46.35;;;;;;;7.52;100.00;102841.69;5045834;28;20035;-87
2021/12/15 01:57:47;;;;;;;108.63;45.03;;;;;;;7.52;100.00;102845.22;5053733;28;20562;-88
2021/12/15 02:00:21;;;;;;;113.25;45.90;;;;;;;7.43;100.00;102827.63;5054218;28;20025;-89
2021/12/15 02:02:50;;;;;;;108.95;46.88;;;;;;;7.49;100.00;102834.91;5035640;28;20040;-90
2021/12/15 02:05:15;;;;;;;112.40;45.42;;;;;;;7.41;100.00;102837.66;5045397;28;20364;-90
2021/12/15 02:07:45;;;;;;;111.10;46.72;;;;;;;7.54;100.00;102863.69;5053027;28;20055;-90
2021/12/15 02:10:11;;;;;;;110.85;47.13;;;;;;;7.43;100.00;102840.97;5052828;28;20057;-89
2021/12/15 02:12:40;;;;;;;113.68;46.53;;;;;;;7.47;100.00;102852.13;5053593;28;20087;-89
2021/12/15 02:15:29;;;;;;;105.60;44.97;;;;;;;7.54;100.00;102858.34;5053717;28;20021;-90
2021/12/15 02:17:55;;;;;;;110.45;44.22;;;;;;;7.56;100.00;102862.50;5051557;28;20041;-89
2021/12/15 02:20:28;;;;;;;110.35;45.45;;;;;;;7.53;100.00;102864.69;5053805;28;20451;-89
2021/12/15 02:22:53;;;;;;;112.80;45.75;;;;;;;7.49;100.00;102861.59;5050920;28;20111;-89
2021/12/15 02:25:19;;;;;;;110.45;44.75;;;;;;;7.54;100.00;102869.03;5044684;28;20115;-91
2021/12/15 02:27:44;;;;;;;109.55;45.83;;;;;;;7.57;100.00;102873.97;5052041;28;20032;-91
2021/12/15 02:30:31;;;;;;;115.10;44.67;;;;;;;7.47;100.00;102855.59;5053336;28;20028;-90
2021/12/15 02:33:09;;;;;;;109.22;44.33;;;;;;;7.56;100.00;102865.16;5047272;28;20037;-92
2021/12/15 02:38:28;;;;;;;109.70;44.78;;;;;;;7.53;100.00;102857.53;5056517;28;20047;-89
2021/12/15 02:40:54;;;;;;;107.38;44.13;;;;;;;7.42;100.00;102834.00;5053537;28;20121;-90
2021/12/15 02:43:19;;;;;;;108.55;43.38;;;;;;;7.54;100.00;102856.53;5051161;28;20037;-90
2021/12/15 02:45:44;;;;;;;106.53;44.40;;;;;;;7.58;100.00;102867.63;5051396;28;20094;-90
2021/12/15 02:48:10;;;;;;;110.75;45.05;;;;;;;7.45;100.00;102849.63;5052567;28;20021;-90
2021/12/15 02:50:37;;;;;;;107.93;44.67;;;;;;;7.52;100.00;102855.88;5053393;28;20033;-91
2021/12/15 02:53:03;;;;;;;105.30;44.50;;;;;;;7.60;100.00;102867.44;5042729;28;20064;-89
2021/12/15 02:55:29;;;;;;;109.97;43.25;;;;;;;7.47;100.00;102842.25;5059724;28;20025;-90
2021/12/15 02:57:55;;;;;;;100.10;43.17;;;;;;;7.59;100.00;102866.63;5051987;28;20028;-90
2021/12/15 03:00:25;;;;;;;111.68;45.42;;;;;;;7.46;100.00;102843.28;5051318;28;20025;-90
2021/12/15 03:03:20;;;;;;;105.75;44.35;;;;;;;7.50;100.00;102841.06;5041515;28;20025;-89
2021/12/15 03:05:52;;;;;;;108.60;44.65;;;;;;;7.50;100.00;102836.56;5049206;28;20442;-89
2021/12/15 03:08:22;;;;;;;106.18;43.90;;;;;;;7.47;100.00;102842.25;5049616;28;20179;-87
2021/12/15 03:16:19;;;;;;;99.70;42.50;;;;;;;7.49;100.00;102848.25;5032623;28;20523;-87
2021/12/15 03:18:45;;;;;;;109.45;43.78;;;;;;;7.53;100.00;102852.19;5051280;28;20053;-87
2021/12/15 03:21:17;;;;;;;106.75;42.88;;;;;;;7.61;100.00;102858.41;5048664;28;20099;-87
2021/12/15 03:23:54;;;;;;;105.97;43.42;;;;;;;7.60;100.00;102865.59;5044059;28;20029;-87
2021/12/15 03:26:24;;;;;;;104.88;42.28;;;;;;;7.61;100.00;102853.94;5052152;28;20017;-87
2021/12/15 03:39:21;;;;;;;105.50;41.72;;;;;;;7.62;100.00;102854.75;5051607;28;19913;-90
2021/12/15 03:41:52;;;;;;;106.32;41.63;;;;;;;7.49;100.00;102836.72;5050633;28;20017;-89
2021/12/15 03:44:18;;;;;;;102.22;41.00;;;;;;;7.58;100.00;102855.09;5050974;28;20029;-89
2021/12/15 03:46:44;;;;;;;101.60;42.25;;;;;;;7.53;100.00;102856.69;5051401;28;20040;-89
2021/12/15 03:49:09;;;;;;;98.78;41.35;;;;;;;7.52;100.00;102844.34;5048663;28;20025;-89
2021/12/15 03:51:35;;;;;;;96.30;40.17;;;;;;;7.47;100.00;102844.94;5049275;28;20494;-89
2021/12/15 03:54:00;;;;;;;100.63;40.25;;;;;;;7.47;100.00;102838.78;5051791;28;20029;-89
2021/12/15 03:56:26;;;;;;;100.78;40.72;;;;;;;7.48;100.00;102837.78;5050750;28;20021;-89
2021/12/15 03:58:51;;;;;;;99.95;40.35;;;;;;;7.54;100.00;102855.69;5049694;28;20432;-89
2021/12/15 04:01:20;;;;;;;99.03;41.90;;;;;;;7.47;100.00;102833.44;5051186;28;20028;-89
2021/12/15 04:03:48;;;;;;;105.57;41.35;;;;;;;7.63;100.00;102867.06;5051112;28;20533;-89
2021/12/15 04:06:19;;;;;;;95.82;37.85;;;;;;;7.57;100.00;102863.31;5050820;28;20032;-89
2021/12/15 04:08:45;;;;;;;93.97;38.92;;;;;;;7.47;100.00;102847.59;5050462;28;20048;-89
2021/12/15 04:11:14;;;;;;;93.97;39.35;;;;;;;7.62;100.00;102882.25;5050808;28;20384;-89
2021/12/15 04:13:41;;;;;;;94.05;38.70;;;;;;;7.64;100.00;102887.41;5050950;28;20029;-89
2021/12/15 04:16:14;;;;;;;95.22;38.08;;;;;;;7.50;100.00;102857.06;5050870;28;20107;-89
2021/12/15 04:18:40;;;;;;;88.13;37.13;;;;;;;7.55;100.00;102865.34;5050233;28;20364;-89
2021/12/15 04:21:06;;;;;;;93.90;38.65;;;;;;;7.56;100.00;102861.66;5032367;28;20032;-89
2021/12/15 04:23:31;;;;;;;96.55;38.75;;;;;;;7.62;100.00;102860.06;5041201;28;21150;-89
2021/12/15 04:26:00;;;;;;;97.18;37.55;;;;;;;7.52;100.00;102855.03;5050773;28;20388;-89
2021/12/15 04:28:35;;;;;;;88.13;38.65;;;;;;;7.65;100.00;102886.38;5050202;28;20112;-89
2021/12/15 04:31:05;;;;;;;89.22;36.33;;;;;;;7.67;100.00;102882.50;5050949;28;20526;-89
2021/12/15 04:33:42;;;;;;;86.10;38.38;;;;;;;7.66;100.00;102883.56;5050600;28;20527;-89
2021/12/15 04:36:12;;;;;;;99.97;38.85;;;;;;;7.67;100.00;102882.50;5051160;28;20029;-89
2021/12/15 04:38:39;;;;;;;88.43;37.38;;;;;;;7.67;100.00;102889.69;5050152;28;20037;-89
2021/12/15 04:41:08;;;;;;;88.10;38.03;;;;;;;7.66;100.00;102886.22;5049008;28;20103;-89
2021/12/15 04:43:38;;;;;;;91.78;38.47;;;;;;;7.48;100.00;102854.59;5050546;28;20050;-89
2021/12/15 04:46:06;;;;;;;85.25;36.20;;;;;;;7.67;100.00;102887.84;5051212;28;20112;-89
2021/12/15 04:48:31;;;;;;;82.35;36.08;;;;;;;7.70;100.00;102889.31;5034574;28;20868;-89
2021/12/15 04:50:57;;;;;;;92.20;37.10;;;;;;;7.55;100.00;102870.66;5031095;28;20494;-89
2021/12/15 04:53:22;;;;;;;92.20;37.55;;;;;;;7.70;100.00;102897.34;5038864;28;20163;-89
2021/12/15 04:55:51;;;;;;;86.82;37.78;;;;;;;7.63;100.00;102883.91;5050969;28;20028;-89
2021/12/15 04:58:16;;;;;;;83.15;37.22;;;;;;;7.67;100.00;102892.38;5050039;28;20029;-89
2021/12/15 05:00:51;;;;;;;87.00;37.03;;;;;;;7.71;100.00;102899.00;5050132;28;20086;-88
2021/12/15 05:03:17;;;;;;;84.28;36.47;;;;;;;7.65;100.00;102883.72;5049846;28;20472;-86
2021/12/15 05:05:42;;;;;;;81.45;35.80;;;;;;;7.69;100.00;102898.34;5053230;28;20036;-86
2021/12/15 05:08:08;;;;;;;88.65;36.25;;;;;;;7.71;100.00;102905.13;5047892;28;20108;-86
2021/12/15 05:10:35;;;;;;;88.45;36.00;;;;;;;7.69;100.00;102895.69;5050159;28;20088;-86
2021/12/15 05:13:01;;;;;;;80.95;35.50;;;;;;;7.57;100.00;102880.16;5049821;28;20036;-86
2021/12/15 05:15:27;;;;;;;81.90;36.90;;;;;;;7.67;100.00;102895.84;5050194;28;20021;-86
2021/12/15 05:17:53;;;;;;;79.88;35.45;;;;;;;7.66;100.00;102899.56;5046032;28;20107;-86
2021/12/15 05:20:19;;;;;;;81.15;35.58;;;;;;;7.55;100.00;102879.53;5050146;28;20029;-87
2021/12/15 05:22:44;;;;;;;78.70;35.10;;;;;;;7.72;100.00;102909.47;5049590;28;20489;-87
2021/12/15 05:25:10;;;;;;;81.85;34.17;;;;;;;7.72;100.00;102906.78;5050215;28;20033;-86
2021/12/15 05:27:37;;;;;;;84.55;37.05;;;;;;;7.67;100.00;102903.03;5051023;28;20029;-86
2021/12/15 05:30:05;;;;;;;82.60;36.22;;;;;;;7.67;100.00;102906.53;5051244;28;20067;-87
2021/12/15 05:32:30;;;;;;;83.97;36.50;;;;;;;7.69;100.00;102909.03;5038365;28;20047;-86
2021/12/15 05:34:58;;;;;;;84.10;35.72;;;;;;;7.70;100.00;102914.16;5050151;28;20112;-85
2021/12/15 05:37:26;;;;;;;80.63;35.40;;;;;;;7.70;100.00;102916.81;5047884;28;20032;-86
2021/12/15 05:39:52;;;;;;;79.35;34.67;;;;;;;7.73;100.00;102912.97;5049502;28;20464;-86
2021/12/15 05:42:20;;;;;;;81.47;35.63;;;;;;;7.72;100.00;102919.31;5049591;28;20094;-86
2021/12/15 05:44:47;;;;;;;77.05;34.25;;;;;;;7.72;100.00;102922.81;5049192;28;20427;-86
2021/12/15 05:47:12;;;;;;;83.15;34.85;;;;;;;7.64;100.00;102903.41;5048817;28;20091;-86
2021/12/15 05:49:38;;;;;;;84.43;35.55;;;;;;;7.66;100.00;102907.56;5049624;28;20025;-85
2021/12/15 05:52:04;;;;;;;79.85;34.80;;;;;;;7.69;100.00;102914.34;5034003;28;20444;-87
2021/12/15 05:54:30;;;;;;;80.60;35.70;;;;;;;7.69;100.00;102912.50;5045773;28;20132;-87
2021/12/15 05:56:56;;;;;;;79.90;36.08;;;;;;;7.61;100.00;102901.94;5042325;28;20095;-86
2021/12/15 05:59:22;;;;;;;78.90;34.60;;;;;;;7.75;100.00;102918.13;5050742;28;20094;-87
2021/12/15 06:01:48;;;;;;;81.82;35.60;;;;;;;7.73;100.00;102924.47;5049848;28;20124;-87
2021/12/15 06:04:13;;;;;;;84.65;35.55;;;;;;;7.72;100.00;102919.31;5050401;28;20032;-87
2021/12/15 06:06:39;;;;;;;83.63;35.83;;;;;;;7.66;100.00;102915.56;5049493;28;20029;-87
2021/12/15 06:09:06;;;;;;;89.82;35.85;;;;;;;7.72;100.00;102919.31;5044611;28;20136;-87
2021/12/15 06:11:34;;;;;;;88.40;36.63;;;;;;;7.70;100.00;102924.84;5030108;28;20034;-89
2021/12/15 06:13:59;;;;;;;88.30;36.60;;;;;;;7.70;100.00;102932.03;5030267;28;20119;-87
2021/12/15 06:16:25;;;;;;;81.00;35.60;;;;;;;7.70;100.00;102922.16;5050589;28;20044;-87
2021/12/15 06:18:51;;;;;;;88.10;36.28;;;;;;;7.71;100.00;102923.00;5044978;28;20048;-87
2021/12/15 06:21:19;;;;;;;88.43;36.55;;;;;;;7.70;100.00;102926.69;5049350;28;20106;-88
2021/12/15 06:23:47;;;;;;;94.93;38.17;;;;;;;7.69;100.00;102923.19;5057246;28;20057;-88
2021/12/15 06:26:13;;;;;;;90.15;37.25;;;;;;;7.71;100.00;102931.81;5049420;28;20029;-88
2021/12/15 06:28:38;;;;;;;93.65;38.67;;;;;;;7.70;100.00;102930.16;5052975;28;20032;-88
2021/12/15 06:31:07;;;;;;;90.43;37.78;;;;;;;7.68;100.00;102934.06;5050676;28;20033;-88
2021/12/15 06:33:34;;;;;;;92.97;38.20;;;;;;;7.54;100.00;102909.88;5053543;28;20048;-89
2021/12/15 06:36:01;;;;;;;90.55;37.15;;;;;;;7.75;100.00;102936.78;5052451;28;20092;-89
2021/12/15 06:38:30;;;;;;;96.97;38.88;;;;;;;7.60;100.00;102910.97;5036044;28;20032;-88
2021/12/15 06:40:56;;;;;;;96.60;38.33;;;;;;;7.65;100.00;102931.75;5040428;28;20376;-91
2021/12/15 06:43:22;;;;;;;96.90;37.75;;;;;;;7.67;100.00;102927.06;5053543;28;20511;-89
2021/12/15 06:59:35;;;;;;;102.50;40.10;;;;;;;7.74;100.00;102944.00;5042567;28;20167;-91
2021/12/15 07:02:02;;;;;;;104.28;40.15;;;;;;;7.71;100.00;102941.69;5052252;28;20439;-88
2021/12/15 07:04:27;;;;;;;100.40;38.83;;;;;;;7.68;100.00;102942.88;5053059;28;20017;-88
2021/12/15 07:06:52;;;;;;;99.38;40.45;;;;;;;7.76;100.00;102946.47;5041366;28;20520;-88
2021/12/15 07:09:20;;;;;;;102.60;38.42;;;;;;;7.74;100.00;102957.34;5042513;28;20066;-89
2021/12/15 07:11:46;;;;;;;100.13;38.67;;;;;;;7.65;100.00;102940.59;5039844;28;20104;-90
2021/12/15 07:14:11;;;;;;;103.25;39.20;;;;;;;7.74;100.00;102962.66;5045753;28;20036;-89
2021/12/15 07:16:42;;;;;;;102.68;39.47;;;;;;;7.67;100.00;102957.22;5059168;28;20054;-90
2021/12/15 07:20:06;;;;;;;99.13;38.10;;;;;;;7.66;100.00;102942.25;5037696;28;20115;-90
2021/12/15 07:22:15;;;;;;;112.05;40.53;;;;;;;7.78;100.00;102971.13;5047941;28;20039;-90
2021/12/15 07:24:41;;;;;;;99.38;38.70;;;;;;;7.72;100.00;102960.16;5049507;28;20029;-87
2021/12/15 07:27:07;;;;;;;102.35;40.15;;;;;;;7.62;100.00;102940.13;5031961;28;20049;-86
2021/12/15 07:29:34;;;;;;;106.68;41.03;;;;;;;7.77;100.00;102972.94;5040245;28;20571;-85
2021/12/15 07:31:59;;;;;;;110.43;38.97;;;;;;;7.81;100.00;102976.91;5044760;28;20183;-85
2021/12/15 07:34:25;;;;;;;100.47;40.47;;;;;;;7.81;100.00;102986.78;5043163;28;20112;-85
2021/12/15 07:36:51;;;;;;;103.80;40.65;;;;;;;7.77;100.00;102964.13;5043276;28;20107;-85
2021/12/15 07:39:16;;;;;;;109.03;39.88;;;;;;;7.80;100.00;102980.59;5031143;28;20468;-85
2021/12/15 07:41:51;;;;;;;103.25;39.33;;;;;;;7.77;100.00;102970.28;5049522;28;20036;-85
2021/12/15 07:44:19;;;;;;;109.07;41.00;;;;;;;7.72;100.00;102965.50;5051491;28;20099;-86
2021/12/15 07:46:45;;;;;;;107.63;41.30;;;;;;;7.81;100.00;102976.91;5049171;28;20033;-85
2021/12/15 07:49:11;;;;;;;113.55;41.42;;;;;;;7.70;100.00;102959.53;5043424;28;20025;-85
2021/12/15 07:51:36;;;;;;;108.53;41.05;;;;;;;7.76;100.00;102970.47;5045510;28;20391;-86
2021/12/15 07:54:02;;;;;;;112.32;41.72;;;;;;;7.68;100.00;102960.75;5046814;28;20036;-85
2021/12/15 07:56:27;;;;;;;105.93;40.17;;;;;;;7.78;100.00;102974.59;5048710;28;20036;-85
2021/12/15 07:58:53;;;;;;;110.90;42.15;;;;;;;7.82;100.00;102977.75;5032855;28;20037;-86
2021/12/15 08:01:20;;;;;;;112.20;41.47;;;;;;;7.81;100.00;102979.56;5042795;28;20487;-86
2021/12/15 08:03:51;;;;;;;112.57;43.85;;;;;;;7.82;100.00;102977.75;5050571;28;20068;-85
2021/12/15 08:06:17;;;;;;;116.22;41.67;;;;;;;7.78;100.00;102977.28;5033721;28;20396;-86
2021/12/15 08:08:42;;;;;;;113.50;41.95;;;;;;;7.83;100.00;102979.41;5035306;28;20101;-86
2021/12/15 08:11:07;;;;;;;124.95;42.80;;;;;;;7.87;100.00;102994.00;5050489;28;20025;-86
2021/12/15 08:13:35;;;;;;;114.18;43.25;;;;;;;7.87;100.00;102992.19;5046218;28;20032;-86
2021/12/15 08:16:01;;;;;;;116.60;42.22;;;;;;;7.84;100.00;102989.88;5058393;28;20037;-86
2021/12/15 08:18:27;;;;;;;117.43;43.88;;;;;;;7.77;100.00;102978.28;5050359;28;20528;-86
2021/12/15 08:20:52;;;;;;;115.25;42.80;;;;;;;7.77;100.00;102978.28;5062171;28;20033;-86
2021/12/15 08:23:18;;;;;;;119.15;41.85;;;;;;;7.80;100.00;102982.44;5040568;28;20021;-87
2021/12/15 08:25:44;;;;;;;116.00;42.85;;;;;;;7.91;100.00;102992.63;5030055;28;20536;-86
2021/12/15 08:28:11;;;;;;;118.88;43.70;;;;;;;7.83;100.00;102990.09;5044602;28;20032;-86
2021/12/15 08:30:39;;;;;;;119.95;45.25;;;;;;;7.94;100.00;102996.78;5049787;28;20035;-87
2021/12/15 08:33:08;;;;;;;125.32;45.55;;;;;;;7.88;100.00;102988.50;5049343;28;20648;-86
2021/12/15 08:35:41;;;;;;;113.38;43.33;;;;;;;7.97;100.00;102999.91;5032767;28;20039;-85
2021/12/15 08:38:09;;;;;;;122.90;44.08;;;;;;;7.84;100.00;102975.72;5030436;28;20060;-85
2021/12/15 08:40:36;;;;;;;123.43;44.08;;;;;;;8.00;100.00;103002.22;5045569;28;20055;-85
2021/12/15 08:43:03;;;;;;;123.40;43.85;;;;;;;8.03;100.00;103007.16;5050057;28;20032;-85
2021/12/15 08:45:28;;;;;;;114.55;43.67;;;;;;;8.02;100.00;102996.66;5050769;28;20040;-84
2021/12/15 08:47:55;;;;;;;114.93;43.28;;;;;;;8.09;100.00;103008.28;5049367;28;20033;-86
2021/12/15 08:50:26;;;;;;;109.90;43.42;;;;;;;8.01;100.00;102990.53;5050012;28;20108;-85
2021/12/15 08:52:52;;;;;;;112.03;43.13;;;;;;;8.11;100.00;102997.38;5049445;28;20538;-85
2021/12/15 08:55:18;;;;;;;103.65;42.65;;;;;;;8.15;100.00;103001.34;5050204;28;20036;-85
2021/12/15 08:57:48;;;;;;;109.95;43.83;;;;;;;7.99;100.00;102971.19;5049632;28;20021;-85
2021/12/15 09:00:16;;;;;;;108.28;42.83;;;;;;;8.06;100.00;102989.09;5049667;28;20031;-85
2021/12/15 09:02:41;;;;;;;108.72;43.13;;;;;;;8.12;100.00;102999.03;5049602;28;20032;-85
2021/12/15 09:05:07;;;;;;;107.15;43.22;;;;;;;8.19;100.00;103010.66;5050738;28;20025;-85
2021/12/15 09:07:32;;;;;;;108.60;42.97;;;;;;;8.23;100.00;103011.91;5050028;28;20486;-85
2021/12/15 09:09:57;;;;;;;103.15;41.83;;;;;;;8.16;100.00;102998.47;5049432;28;20079;-85
2021/12/15 09:12:23;;;;;;;105.85;42.63;;;;;;;8.18;100.00;103009.81;5048005;28;20043;-85
2021/12/15 09:14:49;;;;;;;104.93;40.88;;;;;;;8.23;100.00;103005.75;5050150;28;20041;-84
2021/12/15 09:17:15;;;;;;;103.07;40.75;;;;;;;8.34;100.00;103014.09;5049971;28;20553;-85
2021/12/15 09:19:40;;;;;;;95.53;40.72;;;;;;;8.23;100.00;103005.75;5049652;28;20040;-85
2021/12/15 09:22:06;;;;;;;105.20;40.65;;;;;;;8.38;100.00;103027.09;5049766;28;20039;-85
2021/12/15 09:24:31;;;;;;;96.82;40.75;;;;;;;8.26;100.00;103000.84;5050433;28;20021;-85
2021/12/15 09:26:57;;;;;;;97.18;40.60;;;;;;;8.34;100.00;103015.94;5050048;28;20434;-85
2021/12/15 09:29:23;;;;;;;98.85;39.70;;;;;;;8.44;100.00;103035.16;5049920;28;20047;-85
2021/12/15 09:31:49;;;;;;;101.95;40.63;;;;;;;8.47;100.00;103042.81;5049767;28;20036;-85
2021/12/15 09:34:18;;;;;;;100.70;41.03;;;;;;;8.44;100.00;103039.66;5050284;28;20071;-85
2021/12/15 09:36:48;;;;;;;100.88;40.47;;;;;;;8.53;100.00;103040.41;5049777;28;20024;-85
2021/12/15 09:39:18;;;;;;;96.78;40.05;;;;;;;8.60;100.00;103038.63;5049922;28;20067;-85
2021/12/15 09:41:44;;;;;;;95.40;40.63;;;;;;;8.61;100.00;103040.28;5048956;28;20060;-85
2021/12/15 09:44:14;;;;;;;90.60;39.42;;;;;;;8.49;100.00;103021.25;5050691;28;20013;-87
2021/12/15 10:03:14;;;;;;;90.95;39.90;;;;;;;8.94;100.00;103045.97;5030526;28;20041;-84
2021/12/15 10:05:49;;;;;;;90.05;39.25;;;;;;;8.94;100.00;103039.78;5032229;28;20104;-84
2021/12/15 10:19:40;;;;;;;85.05;38.53;;;;;;;9.13;100.00;103046.31;5052699;28;20095;-84
2021/12/15 10:22:34;;;;;;;86.13;41.00;;;;;;;9.14;100.00;103049.81;5053611;28;20028;-84
2021/12/15 10:25:18;;;;;;;86.28;39.53;;;;;;;9.12;100.00;103038.47;5053293;28;20104;-84
2021/12/15 10:27:50;;;;;;;83.68;39.75;;;;;;;9.27;100.00;103051.78;5053423;28;20498;-85
2021/12/15 10:30:22;;;;;;;82.25;39.38;;;;;;;9.35;100.00;103054.28;5052895;28;20078;-84
2021/12/15 10:32:51;;;;;;;78.57;39.50;;;;;;;9.33;100.00;103053.66;5051894;28;20535;-84
2021/12/15 10:35:20;;;;;;;84.72;40.00;;;;;;;9.39;100.00;103050.22;5042248;28;20485;-84
2021/12/15 10:38:16;;;;;;;80.72;38.85;;;;;;;9.48;100.00;103046.38;5032685;28;20108;-84
2021/12/15 10:40:55;;;;;;;79.75;37.95;;;;;;;9.46;100.00;103045.75;5051530;28;20487;-84
2021/12/15 10:43:26;;;;;;;80.97;40.15;;;;;;;9.53;100.00;103048.47;5053294;28;20391;-84
2021/12/15 10:45:55;;;;;;;82.97;40.22;;;;;;;9.57;100.00;103046.22;5052295;28;20467;-84
2021/12/15 10:48:35;;;;;;;82.90;40.15;;;;;;;9.63;100.00;103050.78;5052281;28;20095;-84
2021/12/15 10:51:17;;;;;;;81.78;39.72;;;;;;;9.65;100.00;103052.22;5052324;28;20053;-83
2021/12/15 10:53:43;;;;;;;74.13;37.72;;;;;;;9.74;100.00;103054.75;5052457;28;20069;-84
2021/12/15 10:56:13;;;;;;;78.38;38.83;;;;;;;9.76;100.00;103061.56;5051256;28;21742;-84
2021/12/15 10:58:45;;;;;;;77.38;40.42;;;;;;;9.64;100.00;103044.41;5035603;28;20108;-84
2021/12/15 11:01:28;;;;;;;;;;;;;;;9.80;100.00;103067.34;5037648;28;20027;-86
2021/12/15 11:03:54;;;;;;;83.03;41.13;;;;;;;9.59;100.00;103046.84;5043552;28;19928;-85
2021/12/15 11:06:27;;;;;;;82.70;39.75;;;;;;;9.55;100.00;103043.75;5032910;28;20026;-85
2021/12/15 11:09:12;;;;;;;78.85;40.03;;;;;;;9.67;100.00;103060.09;5036546;28;20116;-84
2021/12/15 11:11:38;;;;;;;81.70;40.53;;;;;;;9.58;100.00;103038.00;5052134;28;20132;-85
2021/12/15 11:14:33;;;;;;;78.30;39.35;;;;;;;9.72;100.00;103062.97;5051945;28;20110;-85
2021/12/15 11:17:09;;;;;;;81.55;42.30;;;;;;;9.64;100.00;103049.75;5051226;28;20107;-85
2021/12/15 11:19:37;;;;;;;80.97;41.05;;;;;;;9.59;100.00;103050.31;5051771;28;20063;-85
2021/12/15 11:22:31;;;;;;;84.35;41.10;;;;;;;9.58;100.00;103035.31;5052173;28;20491;-85
2021/12/15 11:24:58;;;;;;;84.43;41.83;;;;;;;9.57;100.00;103024.78;5051934;28;20094;-85
2021/12/15 11:27:23;;;;;;;83.47;41.17;;;;;;;9.73;100.00;103051.25;5051756;28;20029;-86
2021/12/15 11:29:49;;;;;;;80.63;40.80;;;;;;;9.81;100.00;103051.09;5054612;28;20092;-85
2021/12/15 11:32:40;;;;;;;84.03;41.78;;;;;;;9.89;100.00;103060.81;5042748;28;20032;-85
2021/12/15 11:35:10;;;;;;;73.32;39.40;;;;;;;9.76;100.00;103031.31;5041023;28;20498;-85
2021/12/15 11:37:53;;;;;;;79.88;40.70;;;;;;;9.93;100.00;103047.84;5032544;28;20029;-85
2021/12/15 11:40:36;;;;;;;79.53;42.15;;;;;;;9.97;100.00;103038.41;5032031;28;20456;-85
2021/12/15 11:43:04;;;;;;;77.60;40.13;;;;;;;10.02;100.00;103049.34;5031675;28;20048;-85
2021/12/15 11:45:30;;;;;;;77.65;40.03;;;;;;;9.99;100.00;103031.00;5032567;28;20064;-84
2021/12/15 11:48:19;;;;;;;80.10;40.63;;;;;;;10.05;100.00;103030.16;5060853;28;20435;-85
2021/12/15 11:50:46;;;;;;;72.93;40.08;;;;;;;10.10;100.00;103040.31;5046055;28;20060;-87
2021/12/15 11:53:26;;;;;;;75.05;38.53;;;;;;;10.15;100.00;103049.38;5050694;28;20033;-86
2021/12/15 11:55:52;;;;;;;74.03;38.80;;;;;;;10.15;100.00;103036.00;5046863;28;20435;-86
2021/12/15 11:58:30;;;;;;;68.13;37.63;;;;;;;10.07;100.00;103025.44;5049650;28;20029;-86
2021/12/15 12:00:57;;;;;;;69.80;36.05;;;;;;;10.18;100.00;103041.97;5050086;28;20024;-86
2021/12/15 12:03:23;;;;;;;65.53;36.20;;;;;;;10.04;100.00;103012.47;5040388;28;20025;-86
2021/12/15 12:05:48;;;;;;;68.38;38.88;;;;;;;10.03;100.00;103015.34;5035773;28;20021;-86
2021/12/15 12:08:23;;;;;;;67.50;36.65;;;;;;;10.06;100.00;103026.47;5051321;28;20021;-86
2021/12/15 12:10:52;;;;;;;71.85;37.58;;;;;;;10.09;100.00;103017.22;5050157;28;20072;-86
2021/12/15 12:13:27;;;;;;;64.93;36.38;;;;;;;10.20;100.00;103023.84;5041156;28;20029;-86
2021/12/15 12:16:02;;;;;;;67.60;37.65;;;;;;;10.13;99.66;103031.88;5038240;28;20025;-85
2021/12/15 12:18:31;;;;;;;71.32;38.33;;;;;;;10.11;99.93;103021.34;5050511;28;20021;-85
2021/12/15 12:21:06;;;;;;;65.30;36.60;;;;;;;10.10;99.90;103008.97;5049391;28;20052;-85